メインページ
METAR-TAF:

METAR-TAF

空港 :

オスロ, ノルウェー

オスロ空港

緯度: 60-12N, 経度: 011-05E, 海抜: 208m

現時点の気象観測

当レポートは35分前の23:20(UTC)に作成
東/南東の風 3kt
気温 -6°C
湿度 86%
気圧 1037 hPa
視程10km以上
高度1100ftの雲は散在している
高度6200ftの千切れ雲あり
小雪

METAR: ENGM 242320Z 12003KT 9999 -SN SCT011 BKN062 M06/M08 Q1037

時間: 00:55 (23:55 UTC)

予報

予報は24日の 18時(UTC)から 25日の 18時(UTC)まで有効
の風 5kt
視程10km以上
高度1200ftの雲は散在している
高度1800ftの千切れ雲あり
小雪
24日の 18時(UTC)から 25日の 10時(UTC)まで一時的に
視程: 2000m
高度400ftの千切れ雲あり
雪, 靄

TAF: ENGM 2418/2518 17005KT 9999 -SN SCT012 BKN018 TEMPO 2418/2510 2000 SN BR BKN004

4,000以上の空港の気象観測と天気予報(METAR報とTAF報)

利用可能な観測所は地図上に黄色い丸と赤い丸で示す。

丸の上にカーソルを重ねると観測所名を参照できる。

次にクリックすると気象観測と天気予報を参照できる。

マップの切り替え:黒色「×」印の緑ボタンをクリックして拡大、「-」印の緑ボタンをクリックして縮小、緑色の三角印をクリックして隣りの地図に切り替え


METAR-TAF: